createdAt,value
2022-07-26T00:01:21.374Z,99956.97
2022-07-26T00:03:51.191Z,99967.66
2022-07-26T00:06:19.783Z,99958.81
2022-07-26T00:08:48.366Z,99964.19
2022-07-26T00:11:18.888Z,99962.41
2022-07-26T00:13:47.588Z,99962.41
2022-07-26T00:16:16.302Z,99960.66
2022-07-26T00:18:45.109Z,99964.25
2022-07-26T00:21:13.493Z,99958.03
2022-07-26T00:23:41.910Z,99954.53
2022-07-26T00:26:10.279Z,99954.59
2022-07-26T00:28:41.299Z,99963.50
2022-07-26T00:31:11.879Z,99955.56
2022-07-26T00:33:40.488Z,99958.31
2022-07-26T00:36:09.258Z,99948.63
2022-07-26T00:38:38.326Z,99956.69
2022-07-26T00:41:07.189Z,99950.50
2022-07-26T00:43:35.798Z,99954.13
2022-07-26T00:46:05.834Z,99959.50
2022-07-26T00:48:34.270Z,99955.13
2022-07-26T00:51:02.742Z,99952.53
2022-07-26T00:53:31.109Z,99956.13
2022-07-26T00:55:59.715Z,99962.34
2022-07-26T00:58:28.047Z,99955.31
2022-07-26T01:00:56.491Z,99949.13
2022-07-26T01:03:30.392Z,99958.94
2022-07-26T01:06:08.722Z,99949.22
2022-07-26T01:08:37.234Z,99947.50
2022-07-26T01:11:05.740Z,99952.84
2022-07-26T01:13:35.533Z,99955.56
2022-07-26T01:16:04.633Z,99954.75
2022-07-26T01:18:34.504Z,99954.75
2022-07-26T01:21:13.371Z,99952.16
2022-07-26T01:23:44.691Z,99956.56
2022-07-26T01:26:13.829Z,99952.16
2022-07-26T01:28:42.601Z,99960.13
2022-07-26T01:31:10.970Z,99958.34
2022-07-26T01:33:39.381Z,99961.00
2022-07-26T01:36:08.672Z,99956.56
2022-07-26T01:38:37.092Z,99954.81
2022-07-26T01:41:07.141Z,99947.75
2022-07-26T01:43:35.913Z,99952.16
2022-07-26T01:46:04.928Z,99956.59
2022-07-26T01:48:33.529Z,99955.72
2022-07-26T01:51:02.147Z,99954.84
2022-07-26T01:53:30.714Z,99950.38
2022-07-26T01:55:59.249Z,99953.03
2022-07-26T01:58:28.962Z,99954.88
2022-07-26T02:00:57.347Z,99961.94
2022-07-26T02:03:25.672Z,99960.19
2022-07-26T02:05:54.030Z,99968.16
2022-07-26T02:08:22.396Z,99957.50
2022-07-26T02:11:04.448Z,99960.19
2022-07-26T02:13:35.745Z,99964.59
2022-07-26T02:16:06.121Z,99962.84
2022-07-26T02:18:34.856Z,99969.91
2022-07-26T02:21:03.647Z,99978.78
2022-07-26T02:23:32.594Z,99966.38
2022-07-26T02:26:01.672Z,99965.50
2022-07-26T02:28:30.029Z,99965.50
2022-07-26T02:30:59.831Z,99972.59
2022-07-26T02:33:28.380Z,99977.03
2022-07-26T02:35:56.731Z,99969.97
2022-07-26T02:38:25.337Z,99967.34
2022-07-26T02:40:53.796Z,99956.72
2022-07-26T02:43:22.174Z,99957.59
2022-07-26T02:46:01.850Z,99967.34
2022-07-26T02:48:32.636Z,99977.09
2022-07-26T02:51:01.164Z,99967.38
2022-07-26T02:53:29.598Z,99962.97
2022-07-26T02:55:57.954Z,99965.66
2022-07-26T02:58:26.953Z,99965.66
2022-07-26T03:00:55.628Z,99982.50
2022-07-26T03:03:24.169Z,99977.22
2022-07-26T03:05:53.954Z,99976.34
2022-07-26T03:08:22.663Z,99979.00
2022-07-26T03:10:51.287Z,99973.75
2022-07-26T03:13:19.720Z,99979.94
2022-07-26T03:15:48.154Z,99981.75
2022-07-26T03:18:16.518Z,99985.28
2022-07-26T03:20:44.931Z,99981.75
2022-07-26T03:23:14.888Z,99983.59
2022-07-26T03:25:43.716Z,99987.19
2022-07-26T03:28:17.423Z,99977.50
2022-07-26T03:30:47.885Z,99985.50
2022-07-26T03:33:16.607Z,99995.22
2022-07-26T03:35:44.954Z,99992.59
2022-07-26T03:38:14.660Z,99996.09
2022-07-26T03:40:43.042Z,99997.88
2022-07-26T03:43:11.420Z,100005.00
2022-07-26T03:45:39.809Z,100002.38
2022-07-26T03:48:08.515Z,100010.34
2022-07-26T03:50:36.984Z,100011.28
2022-07-26T03:53:05.720Z,100018.31
2022-07-26T03:55:53.057Z,100018.34
2022-07-26T03:58:21.446Z,100014.84
2022-07-26T04:00:49.891Z,100014.84
2022-07-26T04:03:18.261Z,100021.03
2022-07-26T04:05:48.658Z,100022.78
2022-07-26T04:08:17.548Z,100014.00
2022-07-26T04:10:48.162Z,100017.53
2022-07-26T04:13:16.484Z,100024.59
2022-07-26T04:15:44.853Z,100029.91
2022-07-26T04:18:14.583Z,100031.69
2022-07-26T04:20:43.577Z,100028.16
2022-07-26T04:23:12.559Z,100029.94
2022-07-26T04:25:41.895Z,100030.81
2022-07-26T04:28:12.594Z,100028.19
2022-07-26T04:30:41.917Z,100033.50
2022-07-26T04:33:10.343Z,100031.75
2022-07-26T04:35:38.951Z,100034.41
2022-07-26T04:38:07.327Z,100040.63
2022-07-26T04:40:40.480Z,100041.50
2022-07-26T04:43:15.496Z,100039.75
2022-07-26T04:45:45.444Z,100045.06
2022-07-26T04:48:14.138Z,100040.66
2022-07-26T04:50:43.033Z,100045.09
2022-07-26T04:53:11.828Z,100045.97
2022-07-26T04:55:41.091Z,100048.59
2022-07-26T04:58:11.154Z,100045.06
2022-07-26T05:01:02.610Z,100059.22
2022-07-26T05:03:28.009Z,100052.16
2022-07-26T05:05:56.411Z,100048.59
2022-07-26T05:08:24.793Z,100051.28
2022-07-26T05:10:55.812Z,100051.28
2022-07-26T05:13:30.556Z,100051.25
2022-07-26T05:16:00.104Z,100054.78
2022-07-26T05:18:29.994Z,100054.81
2022-07-26T05:21:01.743Z,100054.84
2022-07-26T05:23:30.158Z,100053.09
2022-07-26T05:25:58.512Z,100064.56
2022-07-26T05:28:28.197Z,100054.00
2022-07-26T05:30:56.543Z,100047.78
2022-07-26T05:33:24.933Z,100054.84
2022-07-26T05:35:53.265Z,100055.72
2022-07-26T05:38:21.732Z,100047.72
2022-07-26T05:40:50.886Z,100056.59
2022-07-26T05:43:19.543Z,100054.81
2022-07-26T05:45:49.412Z,100060.09
2022-07-26T05:48:17.797Z,100047.69
2022-07-26T05:50:47.199Z,100052.09
2022-07-26T05:53:18.346Z,100053.88
2022-07-26T05:55:46.822Z,100053.84
2022-07-26T05:58:15.213Z,100054.72
2022-07-26T06:00:48.253Z,100055.56
2022-07-26T06:03:24.293Z,100060.88
2022-07-26T06:05:54.673Z,100059.94
2022-07-26T06:08:23.915Z,100063.44
2022-07-26T06:10:53.507Z,100061.66
2022-07-26T06:13:21.874Z,100059.91
2022-07-26T06:15:50.736Z,100059.88
2022-07-26T06:18:20.566Z,100061.63
2022-07-26T06:20:49.593Z,100057.19
2022-07-26T06:23:17.987Z,100073.06
2022-07-26T06:26:02.167Z,100069.53
2022-07-26T06:28:30.540Z,100069.53
2022-07-26T06:30:58.896Z,100074.84
2022-07-26T06:33:28.647Z,100077.50
2022-07-26T06:35:57.070Z,100076.59
2022-07-26T06:38:25.494Z,100082.78
2022-07-26T06:40:53.865Z,100080.13
2022-07-26T06:43:22.354Z,100084.53
2022-07-26T06:45:50.851Z,100088.91
2022-07-26T06:48:19.286Z,100088.88
2022-07-26T06:50:49.074Z,100087.97
2022-07-26T06:53:17.456Z,100092.41
2022-07-26T06:55:45.995Z,100095.03
2022-07-26T06:58:14.379Z,100093.25
2022-07-26T07:00:42.946Z,100097.66
2022-07-26T07:03:11.384Z,100090.56
2022-07-26T07:05:39.792Z,100098.47
2022-07-26T07:08:09.560Z,100109.06
2022-07-26T07:10:39.857Z,100107.28
2022-07-26T07:13:09.491Z,100110.81
2022-07-26T07:15:37.873Z,100107.25
2022-07-26T07:18:06.254Z,100106.34
2022-07-26T07:20:34.785Z,100105.44
2022-07-26T07:23:03.149Z,100103.66
2022-07-26T07:25:33.099Z,100106.28
2022-07-26T07:28:01.556Z,100108.91
2022-07-26T07:30:29.947Z,100119.53
2022-07-26T07:32:58.420Z,100124.81
2022-07-26T07:35:32.086Z,100123.03
2022-07-26T07:38:01.214Z,100129.16
2022-07-26T07:40:31.843Z,100127.38
2022-07-26T07:43:00.349Z,100123.84
2022-07-26T07:45:28.763Z,100120.28
2022-07-26T07:47:57.180Z,100130.00
2022-07-26T07:50:27.038Z,100125.56
2022-07-26T07:52:55.852Z,100136.13
2022-07-26T07:55:43.923Z,100126.38
2022-07-26T07:58:19.077Z,100130.72
2022-07-26T08:00:48.612Z,100136.88
2022-07-26T08:03:19.095Z,100140.41
2022-07-26T08:05:49.435Z,100138.56
2022-07-26T08:08:22.665Z,100148.28
2022-07-26T08:10:53.225Z,100140.31
2022-07-26T08:13:23.911Z,100141.19
2022-07-26T08:15:52.921Z,100138.47
2022-07-26T08:18:22.738Z,100136.63
2022-07-26T08:20:53.644Z,100138.34
2022-07-26T08:23:22.682Z,100133.78
2022-07-26T08:26:03.226Z,100132.81
2022-07-26T08:28:47.489Z,100138.91
2022-07-26T08:31:18.197Z,100130.03
2022-07-26T08:33:47.081Z,100139.69
2022-07-26T08:36:16.760Z,100136.06
2022-07-26T08:38:47.504Z,100152.88
2022-07-26T08:41:17.034Z,100148.38
2022-07-26T08:43:51.519Z,100149.25
2022-07-26T08:46:27.070Z,100150.97
2022-07-26T08:48:56.870Z,100146.47
2022-07-26T08:51:27.026Z,100148.19
2022-07-26T08:54:04.102Z,100151.66
2022-07-26T08:56:35.933Z,100147.16
2022-07-26T08:59:20.088Z,100148.94
2022-07-26T09:01:57.325Z,100148.03
2022-07-26T09:04:38.639Z,100146.19
2022-07-26T09:07:11.407Z,100150.50
2022-07-26T09:09:51.885Z,100141.53
2022-07-26T09:12:23.853Z,100139.59
2022-07-26T09:14:54.594Z,100149.25
2022-07-26T09:17:26.471Z,100147.44
2022-07-26T09:20:09.281Z,100149.16
2022-07-26T09:22:38.361Z,100151.75
2022-07-26T09:25:21.642Z,100149.91
2022-07-26T09:27:50.580Z,100149.88
2022-07-26T09:30:21.309Z,100142.75
2022-07-26T09:33:02.172Z,100152.50
2022-07-26T09:35:51.327Z,100157.75
2022-07-26T09:38:20.793Z,100162.13
2022-07-26T09:40:51.320Z,100153.28
2022-07-26T09:43:24.360Z,100156.00
2022-07-26T09:46:07.753Z,100164.00
2022-07-26T09:49:08.381Z,100172.13
2022-07-26T09:51:38.460Z,100171.41
2022-07-26T09:54:07.067Z,100177.69
2022-07-26T09:56:46.594Z,100176.06
2022-07-26T09:59:16.594Z,100170.81
2022-07-26T10:01:47.169Z,100185.13
2022-07-26T10:04:16.642Z,100179.84
2022-07-26T10:06:45.307Z,100184.34
2022-07-26T10:09:14.777Z,100186.16
2022-07-26T10:11:47.865Z,100187.94
2022-07-26T10:14:41.340Z,100183.44
2022-07-26T10:17:46.274Z,100178.94
2022-07-26T10:20:42.183Z,100180.59
2022-07-26T10:23:35.169Z,100176.09
2022-07-26T10:26:04.675Z,100176.91
2022-07-26T10:28:36.503Z,100179.50
2022-07-26T10:31:24.484Z,100177.63
2022-07-26T10:33:54.823Z,100173.06
2022-07-26T10:36:26.735Z,100168.53
2022-07-26T10:39:10.820Z,100159.50
2022-07-26T10:41:42.011Z,100170.81
2022-07-26T10:44:20.404Z,100166.16
2022-07-26T10:47:03.083Z,100176.59
2022-07-26T10:49:34.322Z,100170.19
2022-07-26T10:52:09.731Z,100170.88
2022-07-26T10:55:14.592Z,100168.81
2022-07-26T10:57:44.550Z,100186.38
2022-07-26T11:00:19.450Z,100194.28
2022-07-26T11:02:54.987Z,100197.84
2022-07-26T11:05:28.774Z,100204.28
2022-07-26T11:08:05.028Z,100225.78
2022-07-26T11:10:35.786Z,100220.66
2022-07-26T11:13:10.051Z,100222.66
2022-07-26T11:15:39.130Z,100217.47
2022-07-26T11:18:21.139Z,100226.41
2022-07-26T11:20:55.763Z,100223.03
2022-07-26T11:23:35.913Z,100230.28
2022-07-26T11:26:16.097Z,100241.03
2022-07-26T11:28:58.371Z,100242.88
2022-07-26T11:31:51.965Z,100229.69
2022-07-26T11:34:24.810Z,100239.53
2022-07-26T11:36:55.415Z,100244.91
2022-07-26T11:39:27.156Z,100238.72
2022-07-26T11:41:59.081Z,100240.53
2022-07-26T11:44:27.987Z,100242.31
2022-07-26T11:46:57.916Z,100236.06
2022-07-26T11:49:52.824Z,100234.19
2022-07-26T11:52:25.075Z,100238.47
2022-07-26T11:54:55.779Z,100244.47
2022-07-26T11:57:30.030Z,100233.63
2022-07-26T11:59:59.560Z,100242.38
2022-07-26T12:02:29.006Z,100229.84
2022-07-26T12:05:15.863Z,100232.31
2022-07-26T12:07:59.048Z,100235.78
2022-07-26T12:10:29.793Z,100239.19
2022-07-26T12:13:08.955Z,100235.50
2022-07-26T12:15:55.329Z,100241.69
2022-07-26T12:18:25.510Z,100231.75
2022-07-26T12:21:07.122Z,100235.13
2022-07-26T12:23:43.383Z,100239.44
2022-07-26T12:26:24.221Z,100237.63
2022-07-26T12:28:52.959Z,100238.41
2022-07-26T12:31:25.778Z,100231.09
2022-07-26T12:33:54.591Z,100235.41
2022-07-26T12:36:27.397Z,100230.75
2022-07-26T12:38:58.476Z,100237.78
2022-07-26T12:41:36.570Z,100238.63
2022-07-26T12:44:06.023Z,100228.00
2022-07-26T12:46:35.074Z,100236.00
2022-07-26T12:49:04.994Z,100232.63
2022-07-26T12:51:33.619Z,100228.31
2022-07-26T12:54:03.390Z,100230.13
2022-07-26T12:56:31.771Z,100239.97
2022-07-26T12:59:02.127Z,100234.63
2022-07-26T13:01:31.457Z,100239.97
2022-07-26T13:04:00.617Z,100232.03
2022-07-26T13:06:29.238Z,100235.59
2022-07-26T13:08:57.635Z,100231.19
2022-07-26T13:11:26.478Z,100233.00
2022-07-26T13:13:55.759Z,100228.50
2022-07-26T13:16:25.548Z,100225.72
2022-07-26T13:18:53.946Z,100226.38
2022-07-26T13:21:22.393Z,100229.78
2022-07-26T13:23:50.899Z,100233.28
2022-07-26T13:26:19.273Z,100238.63
2022-07-26T13:28:49.705Z,100235.09
2022-07-26T13:31:19.054Z,100224.38
2022-07-26T13:33:48.886Z,100216.91
2022-07-26T13:36:17.281Z,100215.53
2022-07-26T13:38:45.677Z,100214.28
2022-07-26T13:41:14.158Z,100219.38
2022-07-26T13:43:42.626Z,100217.44
2022-07-26T13:46:11.124Z,100216.34
2022-07-26T13:48:52.769Z,100220.53
2022-07-26T13:51:45.046Z,100214.19
2022-07-26T13:54:14.481Z,100211.44
2022-07-26T13:56:43.675Z,100216.88
2022-07-26T13:59:12.421Z,100223.28
2022-07-26T14:01:43.486Z,100224.34
2022-07-26T14:04:14.445Z,100221.00
2022-07-26T14:06:45.104Z,100237.31
2022-07-26T14:09:14.365Z,100233.97
2022-07-26T14:11:43.360Z,100237.78
2022-07-26T14:14:12.540Z,100235.41
2022-07-26T14:16:41.570Z,100240.94
2022-07-26T14:19:10.118Z,100243.78
2022-07-26T14:21:47.043Z,100245.75
2022-07-26T14:24:29.083Z,100254.78
2022-07-26T14:26:59.520Z,100261.16
2022-07-26T14:29:29.042Z,100271.09
2022-07-26T14:31:57.732Z,100265.94
2022-07-26T14:34:26.356Z,100263.44
2022-07-26T14:36:54.800Z,100275.09
2022-07-26T14:39:23.179Z,100285.94
2022-07-26T14:41:53.116Z,100287.06
2022-07-26T14:44:21.702Z,100274.16
2022-07-26T14:46:50.091Z,100287.72
2022-07-26T14:49:18.698Z,100288.78
2022-07-26T14:51:48.027Z,100289.78
2022-07-26T14:54:17.986Z,100296.97
2022-07-26T14:56:46.435Z,100294.38
2022-07-26T14:59:16.904Z,100289.03
2022-07-26T15:01:45.495Z,100284.59
2022-07-26T15:04:14.598Z,100289.00
2022-07-26T15:06:43.119Z,100293.38
2022-07-26T15:09:11.525Z,100298.63
2022-07-26T15:11:41.350Z,100289.66
2022-07-26T15:14:10.046Z,100301.06
2022-07-26T15:16:40.127Z,100294.72
2022-07-26T15:19:08.562Z,100297.22
2022-07-26T15:21:36.944Z,100290.69
2022-07-26T15:24:05.637Z,100287.63
2022-07-26T15:26:34.073Z,100279.22
2022-07-26T15:29:02.443Z,100282.41
2022-07-26T15:31:37.295Z,100282.91
2022-07-26T15:34:09.616Z,100281.75
2022-07-26T15:36:38.434Z,100285.09
2022-07-26T15:39:17.311Z,100291.34
2022-07-26T15:41:46.881Z,100280.81
2022-07-26T15:44:17.095Z,100280.06
2022-07-26T15:46:48.005Z,100290.03
2022-07-26T15:49:19.681Z,100288.41
2022-07-26T15:51:48.202Z,100297.50
2022-07-26T15:54:16.941Z,100290.69
2022-07-26T15:56:45.511Z,100291.78
2022-07-26T15:59:13.982Z,100305.34
2022-07-26T16:01:43.001Z,100300.09
2022-07-26T16:04:11.974Z,100295.75
2022-07-26T16:06:42.468Z,100302.84
2022-07-26T16:09:17.780Z,100296.63
2022-07-26T16:11:47.526Z,100284.19
2022-07-26T16:14:16.155Z,100289.50
2022-07-26T16:16:45.350Z,100294.03
2022-07-26T16:19:14.283Z,100293.13
2022-07-26T16:21:44.321Z,100286.06
2022-07-26T16:24:12.757Z,100290.56
2022-07-26T16:26:42.395Z,100288.88
2022-07-26T16:29:11.115Z,100291.56
2022-07-26T16:31:41.537Z,100287.13
2022-07-26T16:34:10.303Z,100280.13
2022-07-26T16:36:39.432Z,100278.41
2022-07-26T16:39:09.610Z,100277.56
2022-07-26T16:41:38.291Z,100290.97
2022-07-26T16:44:06.990Z,100283.97
2022-07-26T16:46:35.460Z,100292.97
2022-07-26T16:51:35.564Z,100291.31
2022-07-26T16:54:04.034Z,100290.50
2022-07-26T16:56:33.897Z,100288.78
2022-07-26T16:59:02.387Z,100300.38
2022-07-26T17:01:30.844Z,100294.13
2022-07-26T17:03:59.210Z,100286.19
2022-07-26T17:06:27.579Z,100287.97
2022-07-26T17:08:55.927Z,100284.31
2022-07-26T17:11:24.298Z,100282.47
2022-07-26T17:13:54.407Z,100278.78
2022-07-26T17:16:24.661Z,100284.84
2022-07-26T17:18:55.058Z,100277.53
2022-07-26T17:21:23.779Z,100293.38
2022-07-26T17:23:52.547Z,100288.84
2022-07-26T17:26:21.542Z,100291.50
2022-07-26T17:28:49.959Z,100293.31
2022-07-26T17:31:19.747Z,100289.84
2022-07-26T17:33:48.222Z,100291.72
2022-07-26T17:36:21.655Z,100290.91
2022-07-26T17:38:50.228Z,100297.25
2022-07-26T17:41:19.366Z,100299.19
2022-07-26T17:43:48.228Z,100306.41
2022-07-26T17:46:17.130Z,100308.31
2022-07-26T17:48:47.074Z,100303.13
2022-07-26T17:51:15.933Z,100313.88
2022-07-26T17:53:48.539Z,100303.38
2022-07-26T17:56:19.504Z,100306.13
2022-07-26T17:58:47.959Z,100312.44
2022-07-26T18:01:16.598Z,100316.97
2022-07-26T18:03:46.427Z,100321.50
2022-07-26T18:06:14.870Z,100315.34
2022-07-26T18:08:43.637Z,100318.97
2022-07-26T18:11:12.450Z,100317.25
2022-07-26T18:13:41.222Z,100313.78
2022-07-26T18:16:09.738Z,100316.50
2022-07-26T18:18:38.115Z,100316.53
2022-07-26T18:21:07.833Z,100313.00
2022-07-26T18:23:36.210Z,100317.47
2022-07-26T18:26:05.007Z,100322.88
2022-07-26T18:28:33.622Z,100315.88
2022-07-26T18:31:02.367Z,100317.66
2022-07-26T18:33:31.662Z,100313.28
2022-07-26T18:36:00.989Z,100313.31
2022-07-26T18:38:30.783Z,100324.00
2022-07-26T18:40:59.197Z,100324.91
2022-07-26T18:43:27.592Z,100318.75
2022-07-26T18:45:56.235Z,100320.53
2022-07-26T18:48:24.626Z,100320.59
2022-07-26T18:50:53.339Z,100325.91
2022-07-26T18:53:22.060Z,100325.94
2022-07-26T18:55:51.879Z,100326.81
2022-07-26T18:58:20.422Z,100333.06
2022-07-26T19:00:53.868Z,100336.59
2022-07-26T19:03:22.247Z,100333.97
2022-07-26T19:05:50.832Z,100339.34
2022-07-26T19:08:19.215Z,100337.59
2022-07-26T19:10:47.786Z,100331.41
2022-07-26T19:13:17.582Z,100333.22
2022-07-26T19:15:46.079Z,100339.44
2022-07-26T19:18:16.169Z,100341.25
2022-07-26T19:20:45.022Z,100338.63
2022-07-26T19:23:13.416Z,100343.06
2022-07-26T19:25:42.214Z,100342.22
2022-07-26T19:28:10.618Z,100353.75
2022-07-26T19:30:40.478Z,100347.56
2022-07-26T19:33:08.847Z,100348.44
2022-07-26T19:35:37.248Z,100361.78
2022-07-26T19:38:05.841Z,100359.16
2022-07-26T19:40:34.216Z,100367.16
2022-07-26T19:43:02.606Z,100365.41
2022-07-26T19:45:30.994Z,100362.78
2022-07-26T19:48:00.821Z,100370.78
2022-07-26T19:50:29.394Z,100366.38
2022-07-26T19:52:57.785Z,100376.13
2022-07-26T19:55:26.187Z,100383.22
2022-07-26T19:57:54.580Z,100378.81
2022-07-26T20:00:23.613Z,100379.69
2022-07-26T20:02:52.121Z,100379.72
2022-07-26T20:05:22.142Z,100383.28
2022-07-26T20:07:51.306Z,100394.81
2022-07-26T20:10:19.663Z,100391.28
2022-07-26T20:12:48.096Z,100391.28
2022-07-26T20:15:16.495Z,100393.97
2022-07-26T20:17:44.925Z,100394.84
2022-07-26T20:20:13.735Z,100401.09
2022-07-26T20:22:43.454Z,100404.59
2022-07-26T20:25:11.952Z,100401.97
2022-07-26T20:27:40.681Z,100392.25
2022-07-26T20:30:10.366Z,100394.06
2022-07-26T20:32:38.772Z,100394.97
2022-07-26T20:35:08.037Z,100401.16
2022-07-26T20:37:36.681Z,100406.50
2022-07-26T20:40:09.289Z,100407.38
2022-07-26T20:42:38.426Z,100401.22
2022-07-26T20:45:13.008Z,100405.66
2022-07-26T20:47:42.777Z,100404.78
2022-07-26T20:50:11.773Z,100415.41
2022-07-26T20:52:40.247Z,100411.91
2022-07-26T20:55:10.815Z,100423.41
2022-07-26T20:57:39.214Z,100424.28
2022-07-26T21:00:13.368Z,100425.19
2022-07-26T21:02:41.966Z,100427.84
2022-07-26T21:05:11.854Z,100430.50
2022-07-26T21:07:55.648Z,100432.28
2022-07-26T21:10:30.026Z,100445.56
2022-07-26T21:13:00.291Z,100442.03
2022-07-26T21:15:29.204Z,100444.66
2022-07-26T21:17:57.990Z,100446.44
2022-07-26T21:20:26.391Z,100449.09
2022-07-26T21:23:03.615Z,100460.59
2022-07-26T21:25:42.800Z,100465.88
2022-07-26T21:28:11.129Z,100459.69
2022-07-26T21:30:39.709Z,100452.63
2022-07-26T21:33:08.228Z,100450.84
2022-07-26T21:35:36.645Z,100451.75
2022-07-26T21:38:04.981Z,100454.38
2022-07-26T21:40:33.364Z,100459.69
2022-07-26T21:43:03.126Z,100459.69
2022-07-26T21:45:31.573Z,100459.72
2022-07-26T21:48:00.023Z,100458.81
2022-07-26T21:50:28.423Z,100463.22
2022-07-26T21:52:56.791Z,100474.69
2022-07-26T21:55:25.273Z,100463.25
2022-07-26T21:57:53.650Z,100469.38
2022-07-26T22:00:23.419Z,100481.75
2022-07-26T22:02:51.920Z,100481.78
2022-07-26T22:05:42.499Z,100487.06
2022-07-26T22:08:12.475Z,100475.56
2022-07-26T22:10:44.090Z,100475.53
2022-07-26T22:13:14.037Z,100485.25
2022-07-26T22:15:44.487Z,100489.69
2022-07-26T22:18:13.432Z,100478.19
2022-07-26T22:20:42.033Z,100485.22
2022-07-26T22:23:12.506Z,100486.13
2022-07-26T22:25:41.504Z,100488.75
2022-07-26T22:28:11.258Z,100487.00
2022-07-26T22:30:41.011Z,100489.63
2022-07-26T22:33:11.823Z,100490.50
2022-07-26T22:35:40.579Z,100490.50
2022-07-26T22:38:11.345Z,100484.31
2022-07-26T22:40:41.595Z,100479.91
2022-07-26T22:43:11.348Z,100487.81
2022-07-26T22:45:40.001Z,100494.84
2022-07-26T22:48:10.507Z,100496.63
2022-07-26T22:50:39.294Z,100493.06
2022-07-26T22:53:08.005Z,100493.03
2022-07-26T22:55:36.430Z,100493.06
2022-07-26T22:58:04.880Z,100485.97
2022-07-26T23:00:33.370Z,100498.31
2022-07-26T23:03:01.984Z,100485.94
2022-07-26T23:05:46.469Z,100494.78
2022-07-26T23:11:05.172Z,100489.47
2022-07-26T23:13:33.558Z,100490.31
2022-07-26T23:16:02.256Z,100497.34
2022-07-26T23:18:34.060Z,100489.41
2022-07-26T23:21:04.470Z,100492.06
2022-07-26T23:23:32.940Z,100489.38
2022-07-26T23:26:01.946Z,100483.19
2022-07-26T23:28:36.982Z,100485.81
2022-07-26T23:31:10.810Z,100492.84
2022-07-26T23:33:53.077Z,100482.25
2022-07-26T23:36:29.024Z,100478.72
2022-07-26T23:38:59.550Z,100482.22
2022-07-26T23:41:29.042Z,100479.56
2022-07-26T23:43:57.452Z,100483.06
2022-07-26T23:46:26.407Z,100482.19
2022-07-26T23:48:56.137Z,100476.88
2022-07-26T23:51:24.548Z,100479.53
2022-07-26T23:53:54.706Z,100483.06
2022-07-26T23:56:23.421Z,100478.63
2022-07-26T23:58:51.853Z,100480.38
